Flight Track Log - Related Links

Times and Time Zones

All times are in EDT time to prevent confusion due to time zone crossing. See the N337WR flight status page for this flight to view local times or setup timezone preferences in your user account.

Time Position Orientation Groundspeed Altitude Reporting Facility
EDT Latitude Longitude Course Direction KTS MPH feet Rate Location/Type
Sun 05:47:57 PM 29.6375 -95.6589 350° North 218 251 1,000  Level Houston Center
Sun 05:48:58 PM 29.6908 -95.6694 350° North 193 222 4,200 2,846 Climbing Houston Center
Sun 05:49:15 PM 29.7019 -95.6717 350° North 186 214 4,700 885 Climbing Houston Center
Sun 05:49:59 PM 29.7478 -95.6700 North 220 253 5,100 387 Climbing Houston Center
Sun 05:50:17 PM 29.7617 -95.6683 North 219 252 5,100 1,065 Level Houston Center
Sun 05:51:01 PM 29.8178 -95.6569 10° North 250 288 6,200 1,355 Climbing Houston Center
Sun 05:51:19 PM 29.8283 -95.6539 14° North 239 275 6,500 2,656 Climbing Houston Center
Sun 05:52:02 PM 29.8983 -95.6403 10° North 300 345 8,900 2,710 Climbing Houston Center
Sun 05:52:21 PM 29.9097 -95.6369 14° North 288 331 9,300 2,519 Climbing Houston Center
Sun 05:53:23 PM 29.9942 -95.6225 North 297 342 12,300 3,194 Climbing Houston Center
Sun 05:54:25 PM 30.0933 -95.6000 11° North 301 346 15,900 2,256 Climbing Houston Center
Sun 05:55:28 PM 30.1861 -95.5797 11° North 333 383 17,000 1,584 Climbing Houston Center
Sun 05:56:30 PM 30.2822 -95.5589 11° North 347 399 19,200 2,323 Climbing Houston Center
Sun 05:57:32 PM 30.3806 -95.5375 11° North 353 406 21,800 1,887 Climbing Houston Center
Sun 05:58:34 PM 30.4828 -95.5183 North 368 423 23,100 1,432 Climbing Houston Center
Sun 06:00:28 PM 30.7058 -95.5144 North 390 449 26,000 989 Climbing Fort Worth Center
Sun 06:01:30 PM 30.8175 -95.5394 349° North 399 459 26,000  Level Fort Worth Center
Sun 06:02:32 PM 30.9247 -95.5628 349° North 394 453 26,000  Level Fort Worth Center
Sun 06:03:34 PM 31.0286 -95.5881 348° North 381 438 26,000  Level Fort Worth Center
Sun 06:04:36 PM 31.1342 -95.6108 350° North 381 438 26,000 -96 Level Fort Worth Center
Sun 06:05:39 PM 31.2456 -95.6353 349° North 384 442 25,800 -720 Descending Fort Worth Center
Sun 06:06:41 PM 31.3508 -95.6636 347° North 388 447 24,500 -871 Descending Fort Worth Center
Sun 06:07:43 PM 31.4367 -95.7153 333° Northwest 348 400 24,000 -242 Descending Fort Worth Center
Sun 06:08:45 PM 31.5194 -95.7703 330° Northwest 339 390 24,000 -194 Level Fort Worth Center
Sun 06:09:47 PM 31.6144 -95.8336 330° Northwest 338 389 23,600 -919 Descending Fort Worth Center
Sun 06:10:49 PM 31.6944 -95.8872 330° Northwest 338 389 22,100 -1,548 Descending Fort Worth Center
Sun 06:11:51 PM 31.7844 -95.9472 330° Northwest 336 387 20,400 -1,452 Descending Fort Worth Center
Sun 06:12:53 PM 31.8594 -95.9967 331° Northwest 335 386 19,100 -1,306 Descending Fort Worth Center
Sun 06:13:55 PM 31.9375 -96.0492 330° Northwest 326 375 17,700 -1,355 Descending Fort Worth Center
Sun 06:14:57 PM 32.0197 -96.1044 330° Northwest 323 372 16,300 -1,344 Descending Fort Worth Center
Sun 06:16:00 PM 32.0953 -96.1561 330° Northwest 318 366 14,900 -1,248 Descending Fort Worth Center
Sun 06:17:02 PM 32.1672 -96.2039 331° Northwest 298 343 13,700 -1,210 Descending Fort Worth Center
Sun 06:18:04 PM 32.2433 -96.2525 332° Northwest 265 305 12,400 -1,161 Descending Fort Worth Center
Sun 06:19:06 PM 32.3100 -96.2922 333° Northwest 253 291 11,300 -1,065 Descending Fort Worth Center
Sun 06:20:08 PM 32.3742 -96.3317 333° Northwest 259 298 10,200 -1,065 Descending Fort Worth Center
Sun 06:21:10 PM 32.4417 -96.3711 334° Northwest 266 306 9,100 -871 Descending Fort Worth Center
Sun 06:22:12 PM 32.5136 -96.4144 333° Northwest 268 308 8,400 -968 Descending Fort Worth Center
Sun 06:23:14 PM 32.5775 -96.4533 333° Northwest 258 297 7,100 -1,355 Descending Fort Worth Center
Sun 06:24:16 PM 32.6458 -96.4944 333° Northwest 258 297 5,600 -1,016 Descending Fort Worth Center
Sun 06:25:18 PM 32.7061 -96.5394 328° Northwest 257 296 5,000 -288 Descending Fort Worth Center
Sun 06:26:21 PM 32.7511 -96.5997 312° West 246 283 5,000 -720 Level Fort Worth Center
Sun 06:27:23 PM 32.7992 -96.6664 311° West 246 283 3,500 -1,200 Descending Fort Worth Center
Sun 06:28:41 PM 32.8500 -96.7500 306° West 223 257 2,200 -625 Descending Dallas / Fort Worth TRACON
Sun 06:29:47 PM 32.8833 -96.8000 308° West 176 203 2,000 -381 Descending Dallas / Fort Worth TRACON
Sun 06:30:47 PM 32.9333 -96.8167 344° North 142 163 1,400 -470 Descending Dallas / Fort Worth TRACON
Sun 06:32:33 PM 32.9825 -96.8436 335° Northwest 133 153 700 -396 Descending Fort Worth Center
Sun 06:34:00 PM 32.9667 -96.8333 North  Level FlightAware Approximate

Login

Don't have an account? Register now (free) for customized features, flight alerts, and more!